Time;durP1;ratioP1;P1;durP2;ratioP2;P2;SDS_P1;SDS_P2;PMS_P1;PMS_P2;Temp;Humidity;BMP_temperature;BMP_pressure;BME280_temperature;BME280_humidity;BME280_pressure;Samples;Min_cycle;Max_cycle;Signal;HPM_P1;HPM_P2
2023/10/18 00:02:06;;;;;;;8.10;4.20;;;6.30;99.90;;;;;;5011154;28;20109;-46
2023/10/18 00:04:31;;;;;;;5.10;3.80;;;6.30;99.90;;;;;;5011516;28;20084;-48
2023/10/18 00:06:58;;;;;;;7.22;4.38;;;6.30;99.90;;;;;;5011862;28;20022;-46
2023/10/18 00:09:45;;;;;;;6.40;4.25;;;6.20;99.90;;;;;;5011792;28;20053;-50
2023/10/18 00:12:12;;;;;;;6.65;4.10;;;6.20;99.90;;;;;;5011871;28;20022;-46
2023/10/18 00:14:39;;;;;;;7.15;3.95;;;6.20;99.90;;;;;;5011960;28;20026;-47
2023/10/18 00:17:05;;;;;;;5.72;4.55;;;6.20;99.90;;;;;;5010737;28;20037;-46
2023/10/18 00:19:31;;;;;;;11.07;4.57;;;6.10;99.90;;;;;;5011750;28;20026;-51
2023/10/18 00:21:57;;;;;;;7.32;4.63;;;6.10;99.90;;;;;;5011584;28;20064;-48
2023/10/18 00:24:23;;;;;;;7.80;4.68;;;6.10;99.90;;;;;;5011598;28;20488;-49
2023/10/18 00:26:48;;;;;;;5.10;4.57;;;6.10;99.90;;;;;;5011185;28;20033;-50
2023/10/18 00:29:14;;;;;;;6.25;4.57;;;6.10;99.90;;;;;;5011296;28;20029;-45
2023/10/18 00:31:39;;;;;;;8.85;5.00;;;6.10;99.90;;;;;;5010089;28;20018;-48
2023/10/18 00:34:05;;;;;;;7.53;4.47;;;6.00;99.90;;;;;;5009974;28;20022;-48
2023/10/18 00:36:32;;;;;;;5.18;4.72;;;6.00;99.90;;;;;;5009979;28;20092;-48
2023/10/18 00:38:58;;;;;;;12.07;5.97;;;6.00;99.90;;;;;;5011440;28;20105;-47
2023/10/18 00:41:32;;;;;;;4.82;4.35;;;6.00;99.90;;;;;;5011195;28;20438;-48
2023/10/18 00:43:58;;;;;;;6.45;5.50;;;5.90;99.90;;;;;;5011378;28;20030;-45
2023/10/18 00:46:24;;;;;;;6.18;5.35;;;5.90;99.90;;;;;;5011214;28;20022;-45
2023/10/18 00:48:50;;;;;;;8.32;5.30;;;5.90;99.90;;;;;;5011240;28;20030;-49
2023/10/18 00:51:17;;;;;;;9.18;5.70;;;5.90;99.90;;;;;;5011359;28;20022;-46
2023/10/18 00:53:46;;;;;;;7.78;4.85;;;5.90;99.90;;;;;;5011584;28;20026;-49
2023/10/18 00:56:13;;;;;;;7.80;5.18;;;5.90;99.90;;;;;;5011147;28;20050;-47
2023/10/18 00:58:41;;;;;;;7.72;4.68;;;5.90;99.90;;;;;;5011202;28;20428;-47
2023/10/18 01:01:10;;;;;;;7.35;5.22;;;5.90;99.90;;;;;;5011141;28;20018;-47
2023/10/18 01:03:38;;;;;;;7.55;5.30;;;5.90;99.90;;;;;;5011097;28;20061;-46
2023/10/18 01:06:12;;;;;;;5.82;4.50;;;5.90;99.90;;;;;;5010963;28;20022;-46
2023/10/18 01:08:38;;;;;;;6.82;5.18;;;5.90;99.90;;;;;;5010624;28;20029;-46
2023/10/18 01:11:07;;;;;;;10.45;5.22;;;6.00;99.90;;;;;;5009977;28;20171;-50
2023/10/18 01:13:40;;;;;;;5.57;5.03;;;5.90;99.90;;;;;;5013807;28;20486;-45
2023/10/18 01:16:21;;;;;;;7.63;5.07;;;5.90;99.90;;;;;;5014485;28;20022;-47
2023/10/18 01:18:47;;;;;;;6.15;4.63;;;5.90;99.90;;;;;;5014939;28;20026;-49
2023/10/18 01:21:19;;;;;;;7.90;5.00;;;5.90;99.90;;;;;;5014140;28;20044;-49
2023/10/18 01:23:49;;;;;;;7.65;5.15;;;5.90;99.90;;;;;;5014138;28;20096;-49
2023/10/18 01:26:16;;;;;;;8.57;4.97;;;5.90;99.90;;;;;;5014343;28;20062;-50
2023/10/18 01:28:42;;;;;;;8.40;4.93;;;5.90;99.90;;;;;;5014393;28;20112;-45
2023/10/18 01:31:09;;;;;;;5.75;5.03;;;5.90;99.90;;;;;;5014255;28;20174;-47
2023/10/18 01:33:45;;;;;;;6.60;5.00;;;5.90;99.90;;;;;;5014362;28;20060;-46
2023/10/18 01:36:13;;;;;;;6.57;4.82;;;5.90;99.90;;;;;;5014207;28;20441;-46
2023/10/18 01:38:45;;;;;;;7.05;5.13;;;5.90;99.90;;;;;;5013900;28;20018;-47
2023/10/18 01:41:29;;;;;;;7.38;5.13;;;5.80;99.90;;;;;;5014005;28;20053;-52
2023/10/18 01:44:10;;;;;;;7.50;5.30;;;5.80;99.90;;;;;;5013867;28;20393;-51
2023/10/18 01:46:45;;;;;;;5.35;4.60;;;5.80;99.90;;;;;;5013812;28;20018;-48
2023/10/18 01:49:13;;;;;;;8.73;5.57;;;5.80;99.90;;;;;;5013958;28;20147;-48
2023/10/18 01:51:43;;;;;;;17.80;6.05;;;5.80;99.90;;;;;;5013804;28;20026;-49
2023/10/18 01:54:15;;;;;;;8.05;5.47;;;5.80;99.90;;;;;;5012412;28;20080;-49
2023/10/18 01:56:47;;;;;;;7.50;5.05;;;5.80;99.90;;;;;;5013644;28;20029;-46
2023/10/18 01:59:14;;;;;;;6.72;5.35;;;5.80;99.90;;;;;;5013673;28;20029;-46
2023/10/18 02:01:40;;;;;;;6.90;5.53;;;5.80;99.90;;;;;;5013689;28;20497;-45
2023/10/18 02:04:11;;;;;;;6.00;5.13;;;5.80;99.90;;;;;;5013442;28;20064;-49
2023/10/18 02:06:37;;;;;;;9.80;5.30;;;5.70;99.90;;;;;;5013321;28;20026;-47
2023/10/18 02:09:09;;;;;;;6.07;5.05;;;5.80;99.90;;;;;;5013488;28;20528;-46
2023/10/18 02:11:35;;;;;;;11.77;5.60;;;5.70;99.90;;;;;;5013514;28;20018;-50
2023/10/18 02:14:02;;;;;;;11.23;5.50;;;5.70;99.90;;;;;;5012054;28;20022;-45
2023/10/18 02:16:28;;;;;;;8.25;6.15;;;5.70;99.90;;;;;;5013281;28;20042;-46
2023/10/18 02:18:54;;;;;;;8.20;5.25;;;5.80;99.90;;;;;;5013114;28;20490;-46
2023/10/18 02:21:21;;;;;;;5.50;5.00;;;5.80;99.90;;;;;;5013058;28;20109;-48
2023/10/18 02:23:50;;;;;;;7.07;4.95;;;5.80;99.90;;;;;;5012488;28;20022;-46
2023/10/18 02:26:30;;;;;;;8.43;5.10;;;5.70;99.90;;;;;;5013309;28;20014;-44
2023/10/18 02:28:56;;;;;;;8.68;5.70;;;5.70;99.90;;;;;;5013450;28;20477;-47
2023/10/18 02:31:22;;;;;;;7.40;5.35;;;5.70;99.90;;;;;;5012018;28;20022;-46
2023/10/18 02:33:48;;;;;;;8.88;5.82;;;5.70;99.90;;;;;;5013000;28;20034;-46
2023/10/18 02:36:20;;;;;;;9.63;5.57;;;5.70;99.90;;;;;;5013187;28;20027;-50
2023/10/18 02:38:49;;;;;;;8.00;4.90;;;6.40;99.90;;;;;;5012928;28;20022;-50
2023/10/18 02:41:26;;;;;;;6.38;5.07;;;5.70;99.90;;;;;;5012926;28;20101;-47
2023/10/18 02:43:54;;;;;;;5.32;4.80;;;5.60;99.90;;;;;;5012949;28;20036;-47
2023/10/18 02:46:23;;;;;;;7.70;5.20;;;5.60;99.90;;;;;;5012513;28;20101;-47
2023/10/18 02:48:51;;;;;;;7.72;4.93;;;5.50;99.90;;;;;;5013344;28;20401;-47
2023/10/18 02:51:22;;;;;;;10.05;5.13;;;5.50;99.90;;;;;;5011315;28;20022;-49
2023/10/18 02:53:51;;;;;;;5.85;4.90;;;5.40;99.90;;;;;;5012653;28;20444;-47
2023/10/18 02:56:17;;;;;;;10.20;6.03;;;5.40;99.90;;;;;;5012409;28;20017;-50
2023/10/18 02:58:46;;;;;;;6.80;5.20;;;5.40;99.90;;;;;;5012594;28;20032;-45
2023/10/18 03:01:14;;;;;;;5.95;5.40;;;5.40;99.90;;;;;;5012629;28;20041;-52
2023/10/18 03:03:40;;;;;;;10.32;5.55;;;5.40;99.90;;;;;;5012368;28;20660;-47
2023/10/18 03:06:12;;;;;;;7.32;4.95;;;5.30;99.90;;;;;;5012348;28;20018;-47
2023/10/18 03:08:42;;;;;;;9.50;4.35;;;5.30;99.90;;;;;;5012049;28;20081;-45
2023/10/18 03:11:11;;;;;;;8.77;5.55;;;5.30;99.90;;;;;;5012453;28;20397;-46
2023/10/18 03:13:37;;;;;;;6.80;5.15;;;5.30;99.90;;;;;;5012335;28;20336;-48
2023/10/18 03:16:15;;;;;;;7.60;5.47;;;5.30;99.90;;;;;;5012143;28;20022;-50
2023/10/18 03:18:43;;;;;;;7.05;5.18;;;5.30;99.90;;;;;;5010602;28;20033;-45
2023/10/18 03:21:09;;;;;;;10.43;5.70;;;5.20;99.90;;;;;;5011902;28;20112;-49
2023/10/18 03:23:44;;;;;;;6.10;5.10;;;5.30;99.90;;;;;;5012244;28;20218;-43
2023/10/18 03:26:12;;;;;;;7.95;5.45;;;5.20;99.90;;;;;;5012158;28;20017;-46
2023/10/18 03:28:43;;;;;;;6.88;5.43;;;5.20;99.90;;;;;;5011845;28;20037;-47
2023/10/18 03:31:23;;;;;;;7.93;5.85;;;5.20;99.90;;;;;;5011908;28;20025;-46
2023/10/18 03:34:03;;;;;;;6.28;5.65;;;5.20;99.90;;;;;;5011882;28;20032;-45
2023/10/18 03:36:32;;;;;;;8.68;5.65;;;5.20;99.90;;;;;;5010808;28;20497;-47
2023/10/18 03:39:10;;;;;;;7.85;5.75;;;5.30;99.90;;;;;;5011892;28;20057;-50
2023/10/18 03:41:40;;;;;;;8.38;5.70;;;5.20;99.90;;;;;;5011720;28;20060;-48
2023/10/18 03:44:06;;;;;;;8.25;4.93;;;5.20;99.90;;;;;;5011656;28;20030;-46
2023/10/18 03:46:39;;;;;;;7.93;5.60;;;5.30;99.90;;;;;;5010366;28;20028;-51
2023/10/18 03:49:09;;;;;;;10.75;5.55;;;5.20;99.90;;;;;;5011762;28;20027;-48
2023/10/18 03:51:37;;;;;;;10.07;5.70;;;5.20;99.90;;;;;;5011845;28;20493;-46
2023/10/18 03:54:03;;;;;;;9.77;6.32;;;5.20;99.90;;;;;;5011557;28;20500;-46
2023/10/18 03:56:36;;;;;;;10.13;6.22;;;5.20;99.90;;;;;;5011470;28;20135;-46
2023/10/18 03:59:19;;;;;;;10.48;8.05;;;5.10;99.90;;;;;;5011636;28;20083;-50
2023/10/18 04:01:55;;;;;;;7.32;5.90;;;5.20;99.90;;;;;;5011747;28;20105;-47
2023/10/18 04:04:25;;;;;;;9.55;6.18;;;5.20;99.90;;;;;;5011311;28;20026;-51
2023/10/18 04:06:58;;;;;;;10.30;6.43;;;5.20;99.90;;;;;;5011627;28;20048;-43
2023/10/18 04:09:23;;;;;;;7.40;6.03;;;5.10;99.90;;;;;;5011526;28;20038;-46
2023/10/18 04:11:49;;;;;;;9.98;6.05;;;5.10;99.90;;;;;;5011627;28;20101;-46
2023/10/18 04:14:16;;;;;;;7.38;6.32;;;5.00;99.90;;;;;;5011295;28;20421;-48
2023/10/18 04:16:42;;;;;;;13.25;6.32;;;5.00;99.90;;;;;;5011369;28;20105;-46
2023/10/18 04:19:08;;;;;;;8.93;5.85;;;4.90;99.90;;;;;;5011301;28;20474;-48
2023/10/18 04:21:34;;;;;;;9.20;5.93;;;4.90;99.90;;;;;;5011222;28;20076;-49
2023/10/18 04:24:03;;;;;;;6.78;6.00;;;4.90;99.90;;;;;;5011291;28;20393;-45
2023/10/18 04:26:29;;;;;;;7.35;6.10;;;4.90;99.90;;;;;;5011195;28;20018;-49
2023/10/18 04:28:57;;;;;;;8.10;6.20;;;4.90;99.90;;;;;;5011356;28;20045;-44
2023/10/18 04:31:24;;;;;;;8.18;6.18;;;4.90;99.90;;;;;;5011397;28;20069;-52
2023/10/18 04:33:53;;;;;;;11.07;7.43;;;5.00;99.90;;;;;;5011167;28;20106;-45
2023/10/18 04:36:22;;;;;;;19.00;8.25;;;5.00;99.90;;;;;;5011112;28;20025;-47
2023/10/18 04:38:48;;;;;;;8.32;6.40;;;5.00;99.90;;;;;;5011376;28;20507;-47
2023/10/18 04:41:23;;;;;;;13.15;6.78;;;5.00;99.90;;;;;;5011316;28;20045;-51
2023/10/18 04:43:50;;;;;;;;;;;5.00;99.90;;;;;;5011779;28;20084;-45
2023/10/18 04:46:16;;;;;;;7.35;6.20;;;5.00;99.90;;;;;;5011380;28;20339;-42
2023/10/18 04:54:03;;;;;;;9.70;6.82;;;5.10;99.90;;;;;;5014956;28;20034;-53
2023/10/18 04:56:34;;;;;;;11.00;7.30;;;5.20;99.90;;;;;;5014878;28;20018;-47
2023/10/18 05:04:28;;;;;;;9.70;7.15;;;5.10;99.90;;;;;;5014485;28;20450;-48
2023/10/18 05:06:54;;;;;;;10.15;8.07;;;5.10;99.90;;;;;;5014716;28;20097;-46
2023/10/18 05:09:43;;;;;;;10.07;6.95;;;5.10;99.90;;;;;;5014879;28;20401;-47
2023/10/18 05:14:42;;;;;;;10.10;8.30;;;5.10;99.90;;;;;;5014576;28;20029;-48
2023/10/18 05:17:11;;;;;;;13.25;7.43;;;5.10;99.90;;;;;;5014199;28;20029;-48
2023/10/18 05:19:41;;;;;;;9.80;7.72;;;5.10;99.90;;;;;;5012961;28;20032;-45
2023/10/18 05:22:08;;;;;;;9.43;7.00;;;5.20;99.90;;;;;;5014195;28;20026;-48
2023/10/18 05:24:37;;;;;;;13.73;7.40;;;5.20;99.90;;;;;;5014263;28;20104;-45
2023/10/18 05:27:13;;;;;;;17.48;8.10;;;5.20;99.90;;;;;;5013985;28;20018;-48
2023/10/18 05:29:43;;;;;;;9.35;7.88;;;5.30;99.90;;;;;;5014359;28;20030;-49
2023/10/18 05:32:16;;;;;;;11.30;8.50;;;5.30;99.90;;;;;;5014205;28;20018;-46
2023/10/18 05:34:50;;;;;;;12.98;8.57;;;5.30;99.90;;;;;;5014122;28;20026;-50
2023/10/18 05:37:18;;;;;;;11.45;8.02;;;5.40;99.90;;;;;;5013982;28;20148;-46
2023/10/18 05:40:42;;;;;;;12.85;8.82;;;5.40;99.90;;;;;;5014061;28;20046;-48
2023/10/18 05:42:35;;;;;;;12.32;7.80;;;5.40;99.90;;;;;;5013777;28;20026;-45
2023/10/18 05:45:01;;;;;;;12.20;8.18;;;5.40;99.90;;;;;;5013737;28;20026;-47
2023/10/18 05:47:29;;;;;;;14.23;7.40;;;5.40;99.90;;;;;;5013698;28;20045;-44
2023/10/18 05:49:56;;;;;;;14.10;8.55;;;5.30;99.90;;;;;;5013687;28;20033;-47
2023/10/18 05:52:36;;;;;;;13.38;7.90;;;5.30;99.90;;;;;;5013868;28;20098;-46
2023/10/18 05:55:03;;;;;;;14.60;8.30;;;5.20;99.90;;;;;;5014179;28;20028;-48
2023/10/18 05:57:28;;;;;;;10.80;7.63;;;5.20;99.90;;;;;;5012116;28;20497;-47
2023/10/18 05:59:54;;;;;;;14.05;7.43;;;5.20;99.90;;;;;;5012603;28;20041;-47
2023/10/18 06:02:23;;;;;;;12.80;7.68;;;5.30;99.90;;;;;;5013666;28;20041;-46
2023/10/18 06:04:51;;;;;;;13.10;8.27;;;5.20;99.90;;;;;;5013441;28;20026;-51
2023/10/18 06:07:18;;;;;;;11.38;8.32;;;5.20;99.90;;;;;;5013521;28;20022;-46
2023/10/18 06:09:48;;;;;;;11.10;8.35;;;5.20;99.90;;;;;;5013245;28;20072;-44
2023/10/18 06:12:15;;;;;;;11.23;8.02;;;5.20;99.90;;;;;;5013397;28;20485;-45
2023/10/18 06:14:44;;;;;;;11.93;8.65;;;5.20;99.90;;;;;;5013318;28;20049;-46
2023/10/18 06:17:12;;;;;;;18.45;8.32;;;5.20;99.90;;;;;;5013220;28;20449;-46
2023/10/18 06:19:39;;;;;;;13.65;8.35;;;5.30;99.90;;;;;;5013135;28;20033;-45
2023/10/18 06:24:48;;;;;;;11.48;9.00;;;5.40;99.90;;;;;;5013176;28;20088;-47
2023/10/18 06:27:16;;;;;;;11.98;8.88;;;5.40;99.90;;;;;;5011704;28;20470;-44
2023/10/18 06:29:45;;;;;;;11.65;8.75;;;5.40;99.90;;;;;;5013131;28;20393;-49
2023/10/18 06:32:14;;;;;;;11.60;8.85;;;5.40;99.90;;;;;;5013044;28;20474;-44
2023/10/18 06:34:43;;;;;;;13.93;8.55;;;5.50;99.90;;;;;;5012892;28;20129;-47
2023/10/18 06:37:41;;;;;;;13.38;9.82;;;5.70;99.90;;;;;;5012785;28;20075;-44
2023/10/18 06:39:58;;;;;;;11.05;9.10;;;5.90;99.90;;;;;;5012489;28;20434;-45
2023/10/18 06:42:26;;;;;;;16.20;9.32;;;6.10;99.90;;;;;;5012928;28;20022;-50
2023/10/18 06:44:54;;;;;;;16.73;9.20;;;6.30;99.90;;;;;;5012716;28;20401;-49
2023/10/18 06:47:23;;;;;;;16.02;9.93;;;6.50;99.90;;;;;;5012644;28;20022;-48
2023/10/18 06:49:48;;;;;;;12.30;8.43;;;6.70;99.90;;;;;;5012539;28;20029;-46
2023/10/18 06:52:14;;;;;;;14.65;8.55;;;6.80;99.90;;;;;;5012656;28;20026;-50
2023/10/18 06:54:42;;;;;;;14.30;8.20;;;6.80;99.90;;;;;;5012628;28;20444;-50
2023/10/18 06:57:18;;;;;;;10.82;7.93;;;6.80;99.90;;;;;;5012206;28;20030;-45
2023/10/18 06:59:48;;;;;;;11.95;9.07;;;6.70;99.90;;;;;;5012150;28;20022;-45
2023/10/18 07:02:14;;;;;;;11.35;7.93;;;6.80;99.90;;;;;;5010923;28;20080;-46
2023/10/18 07:04:49;;;;;;;15.15;9.50;;;6.90;99.90;;;;;;5011036;28;20053;-46
2023/10/18 07:07:19;;;;;;;16.13;9.07;;;6.90;99.90;;;;;;5012381;28;20101;-45
2023/10/18 07:09:46;;;;;;;13.82;8.40;;;6.90;99.90;;;;;;5011889;28;20038;-48
2023/10/18 07:12:11;;;;;;;12.38;9.05;;;6.80;99.90;;;;;;5010887;28;20105;-45
2023/10/18 07:14:37;;;;;;;12.52;9.15;;;6.70;99.90;;;;;;5012017;28;20117;-49
2023/10/18 07:17:04;;;;;;;15.95;10.82;;;6.70;99.90;;;;;;5012005;28;20064;-50
2023/10/18 07:19:33;;;;;;;12.30;9.13;;;6.80;99.90;;;;;;5012373;28;20022;-47
2023/10/18 07:22:05;;;;;;;10.48;8.88;;;6.80;99.90;;;;;;5012307;28;20068;-50
2023/10/18 07:24:36;;;;;;;13.40;8.68;;;6.70;99.90;;;;;;5012140;28;20194;-45
2023/10/18 07:27:09;;;;;;;14.85;9.80;;;6.70;99.90;;;;;;5011252;28;20025;-50
2023/10/18 07:29:45;;;;;;;12.88;9.90;;;6.70;99.90;;;;;;5011827;28;20025;-45
2023/10/18 07:32:12;;;;;;;13.93;9.73;;;6.80;99.90;;;;;;5012401;28;20036;-45
2023/10/18 07:34:38;;;;;;;13.88;9.73;;;6.80;99.90;;;;;;5011619;28;20393;-46
2023/10/18 07:37:24;;;;;;;11.60;9.27;;;6.80;99.90;;;;;;5011265;28;20030;-49
2023/10/18 07:39:56;;;;;;;17.75;10.40;;;6.90;99.90;;;;;;5011947;28;20061;-47
2023/10/18 07:42:26;;;;;;;15.38;9.57;;;6.80;99.90;;;;;;5012149;28;20409;-48
2023/10/18 07:44:55;;;;;;;14.52;9.63;;;6.90;99.90;;;;;;5011697;28;20030;-45
2023/10/18 07:47:25;;;;;;;16.38;10.15;;;6.90;99.90;;;;;;5012185;28;20022;-44
2023/10/18 07:49:51;;;;;;;14.45;9.07;;;6.90;99.90;;;;;;5011642;28;20029;-51
2023/10/18 07:52:17;;;;;;;11.65;9.13;;;6.90;99.90;;;;;;5011843;28;20022;-46
2023/10/18 07:54:42;;;;;;;13.40;9.75;;;7.00;99.90;;;;;;5011730;28;20022;-44
2023/10/18 07:57:17;;;;;;;12.20;9.15;;;7.10;99.90;;;;;;5010944;28;20828;-51
2023/10/18 07:59:46;;;;;;;19.23;9.60;;;7.10;99.90;;;;;;5011082;28;20029;-47
2023/10/18 08:02:12;;;;;;;18.65;9.95;;;7.10;99.90;;;;;;5011289;28;20037;-47
2023/10/18 08:04:40;;;;;;;11.23;8.52;;;7.10;99.90;;;;;;5011472;28;20033;-47
2023/10/18 08:07:15;;;;;;;11.98;9.18;;;7.20;99.90;;;;;;5011419;28;20100;-44
2023/10/18 08:09:41;;;;;;;13.73;9.38;;;7.30;99.90;;;;;;5011602;28;20029;-45
2023/10/18 08:12:08;;;;;;;16.30;9.32;;;7.40;99.90;;;;;;5011458;28;20029;-45
2023/10/18 08:14:35;;;;;;;11.88;9.50;;;7.50;99.90;;;;;;5011361;28;20033;-44
2023/10/18 08:17:22;;;;;;;16.48;10.10;;;7.50;99.90;;;;;;5011383;28;20030;-47
2023/10/18 08:19:56;;;;;;;18.67;9.38;;;7.60;99.90;;;;;;5012406;28;20026;-51
2023/10/18 08:24:49;;;;;;;14.73;9.00;;;7.70;99.90;;;;;;5015279;28;20037;-45
2023/10/18 08:27:16;;;;;;;13.25;10.38;;;7.90;99.90;;;;;;5015454;28;20022;-45
2023/10/18 08:29:42;;;;;;;13.00;9.48;;;8.00;99.90;;;;;;5015536;28;20046;-49
2023/10/18 08:32:17;;;;;;;15.20;9.10;;;8.00;99.90;;;;;;5015795;28;20068;-46
2023/10/18 08:34:47;;;;;;;14.98;9.55;;;8.00;99.90;;;;;;5015184;28;20068;-45
2023/10/18 08:37:13;;;;;;;16.45;10.10;;;8.00;99.90;;;;;;5015325;28;20030;-45
2023/10/18 08:39:55;;;;;;;12.45;8.45;;;8.20;99.90;;;;;;5015809;28;20072;-47
2023/10/18 08:42:32;;;;;;;11.05;8.55;;;8.30;99.90;;;;;;5015729;28;20029;-46
2023/10/18 08:45:03;;;;;;;16.38;9.23;;;8.50;99.90;;;;;;5015636;28;20436;-46
2023/10/18 08:47:30;;;;;;;13.68;9.45;;;8.60;99.90;;;;;;5015124;28;20022;-45
2023/10/18 08:49:56;;;;;;;13.38;8.43;;;8.70;99.90;;;;;;5019525;23;20126;-49
2023/10/18 08:52:30;;;;;;;15.90;8.93;;;8.70;99.90;;;;;;4994298;28;20053;-48
2023/10/18 08:54:59;;;;;;;16.95;9.30;;;8.80;99.90;;;;;;4995689;28;20057;-47
2023/10/18 08:57:34;;;;;;;12.88;8.85;;;8.90;99.90;;;;;;4995691;28;20022;-46
2023/10/18 09:02:54;;;;;;;10.35;7.78;;;9.30;99.90;;;;;;4976270;28;20421;-49
2023/10/18 09:05:22;;;;;;;8.95;7.45;;;9.70;99.90;;;;;;4995128;28;20089;-46
2023/10/18 09:07:53;;;;;;;9.77;7.43;;;10.20;99.90;;;;;;4975889;28;20035;-46
2023/10/18 09:16:01;;;;;;;12.98;7.72;;;11.30;99.90;;;;;;4975562;28;20490;-48
2023/10/18 09:18:31;;;;;;;8.60;7.20;;;11.50;99.90;;;;;;4992261;28;20037;-50
2023/10/18 09:21:17;;;;;;;8.68;6.88;;;11.80;99.90;;;;;;4994859;28;20375;-47
2023/10/18 09:23:44;;;;;;;11.90;7.50;;;11.90;99.90;;;;;;4995011;28;20102;-52
2023/10/18 09:26:18;;;;;;;9.88;7.43;;;12.30;99.90;;;;;;4994731;28;20026;-48
2023/10/18 09:28:44;;;;;;;12.02;6.97;;;12.70;99.90;;;;;;4994732;28;20018;-49
2023/10/18 09:31:20;;;;;;;8.50;6.78;;;13.30;99.90;;;;;;4994513;28;20022;-48
2023/10/18 09:33:49;;;;;;;8.20;7.05;;;13.40;99.90;;;;;;4994774;28;20030;-47
2023/10/18 09:36:27;;;;;;;10.45;7.20;;;13.20;99.90;;;;;;4994610;28;20060;-52
2023/10/18 09:38:55;;;;;;;10.43;7.75;;;12.70;99.90;;;;;;4992980;28;20022;-53
2023/10/18 09:41:21;;;;;;;9.80;7.30;;;12.10;99.90;;;;;;4992626;28;20085;-54
2023/10/18 09:43:47;;;;;;;12.57;7.28;;;11.70;99.90;;;;;;4992177;28;20590;-50
2023/10/18 09:46:13;;;;;;;11.00;7.70;;;11.70;99.90;;;;;;4987111;28;20106;-46
2023/10/18 09:48:41;;;;;;;9.60;7.40;;;11.70;99.90;;;;;;4974408;28;20053;-46
2023/10/18 09:51:14;;;;;;;73.07;40.05;;;11.70;99.90;;;;;;4985584;28;20019;-49
2023/10/18 09:53:51;;;;;;;21.63;14.38;;;11.80;99.90;;;;;;4994389;28;20026;-49
2023/10/18 09:56:24;;;;;;;9.85;7.05;;;11.80;99.90;;;;;;4990215;28;20039;-50
2023/10/18 09:58:51;;;;;;;11.15;7.18;;;11.70;99.90;;;;;;4993030;28;20042;-48
2023/10/18 10:01:29;;;;;;;9.55;7.60;;;11.50;99.90;;;;;;4992335;28;20030;-48
2023/10/18 10:04:01;;;;;;;11.48;6.65;;;11.40;99.90;;;;;;4994014;28;20537;-50
2023/10/18 10:06:27;;;;;;;11.02;7.32;;;11.50;99.90;;;;;;4993937;28;20022;-49
2023/10/18 10:09:12;;;;;;;8.20;6.65;;;11.60;99.90;;;;;;4993696;28;20023;-49
2023/10/18 10:11:43;;;;;;;8.17;6.07;;;12.00;99.90;;;;;;4993662;28;20077;-47
2023/10/18 10:14:11;;;;;;;7.60;5.70;;;12.30;99.90;;;;;;4993997;28;20018;-47
2023/10/18 10:16:39;;;;;;;9.52;6.93;;;12.40;99.90;;;;;;4994371;28;20046;-48
2023/10/18 10:19:11;;;;;;;10.60;5.97;;;12.50;99.90;;;;;;4992111;28;20058;-44
2023/10/18 10:21:37;;;;;;;7.10;5.90;;;12.60;99.90;;;;;;4993855;28;20030;-46
2023/10/18 10:24:29;;;;;;;9.32;5.53;;;12.90;99.90;;;;;;4993548;28;20441;-48
2023/10/18 10:26:52;;;;;;;10.60;6.30;;;12.80;99.90;;;;;;4992695;28;20383;-46
2023/10/18 10:29:33;;;;;;;7.22;5.53;;;12.80;99.90;;;;;;4993703;28;20080;-46
2023/10/18 10:32:06;;;;;;;11.73;5.43;;;12.70;99.90;;;;;;4992291;28;20030;-46
2023/10/18 10:34:37;;;;;;;12.25;5.85;;;12.60;99.90;;;;;;4993815;28;20410;-46
2023/10/18 10:37:07;;;;;;;10.43;6.03;;;12.80;99.90;;;;;;4993346;28;20030;-46
2023/10/18 10:39:35;;;;;;;8.25;5.90;;;12.70;99.90;;;;;;4993846;28;20022;-47
2023/10/18 10:42:27;;;;;;;8.43;5.70;;;12.60;99.90;;;;;;4991077;28;20081;-46
2023/10/18 10:45:10;;;;;;;8.77;5.68;;;12.50;99.90;;;;;;4992960;28;20081;-47
2023/10/18 10:47:42;;;;;;;9.63;6.00;;;12.30;99.90;;;;;;4993749;28;20417;-46
2023/10/18 10:50:09;;;;;;;8.18;5.13;;;12.40;99.90;;;;;;4993695;28;20117;-45
2023/10/18 10:52:40;;;;;;;9.18;5.18;;;12.40;99.90;;;;;;4992375;28;20026;-46
2023/10/18 10:55:22;;;;;;;6.80;4.88;;;12.40;99.90;;;;;;4979977;28;20031;-46
2023/10/18 10:57:51;;;;;;;10.68;6.07;;;12.40;99.90;;;;;;4974335;28;20023;-47
2023/10/18 11:03:07;;;;;;;9.70;5.18;;;12.20;99.90;;;;;;4974293;28;20415;-48
2023/10/18 11:05:39;;;;;;;8.57;5.00;;;12.20;99.90;;;;;;4972604;28;20046;-50
2023/10/18 11:08:05;;;;;;;10.43;5.85;;;12.20;99.90;;;;;;4977864;28;20030;-51
2023/10/18 11:10:36;;;;;;;6.88;4.70;;;12.30;99.90;;;;;;4993445;28;20026;-46
2023/10/18 11:13:04;;;;;;;6.40;4.57;;;12.40;99.90;;;;;;4993627;28;20482;-50
2023/10/18 11:15:31;;;;;;;8.68;5.18;;;12.40;99.90;;;;;;4989356;28;20034;-51
2023/10/18 11:18:15;;;;;;;13.32;10.10;;;12.40;99.90;;;;;;4993087;28;20102;-54
2023/10/18 11:23:29;;;;;;;8.43;5.67;;;12.50;99.90;;;;;;4994073;28;20406;-50
2023/10/18 11:25:56;;;;;;;11.60;6.07;;;12.50;99.90;;;;;;4991656;28;20022;-53
2023/10/18 11:28:28;;;;;;;6.03;4.70;;;12.70;99.90;;;;;;4993347;28;20584;-52
2023/10/18 11:30:56;;;;;;;8.80;5.03;;;12.70;99.90;;;;;;4993880;28;20505;-46
2023/10/18 11:33:35;;;;;;;6.57;4.20;;;12.70;99.90;;;;;;4991796;28;20028;-49
2023/10/18 11:36:04;;;;;;;7.55;5.00;;;12.80;99.90;;;;;;4993218;28;20488;-48
2023/10/18 11:38:34;;;;;;;6.70;4.78;;;12.70;99.90;;;;;;4992663;28;20030;-48
2023/10/18 11:41:04;;;;;;;6.75;5.32;;;12.70;99.90;;;;;;4993489;28;20018;-51
2023/10/18 11:43:39;;;;;;;7.68;5.88;;;12.70;99.90;;;;;;4991732;28;20069;-50
2023/10/18 11:46:06;;;;;;;6.93;4.65;;;12.80;99.90;;;;;;4992742;28;20026;-48
2023/10/18 11:48:33;;;;;;;7.50;4.95;;;12.80;99.90;;;;;;4993041;28;20042;-54
2023/10/18 11:50:59;;;;;;;9.25;4.63;;;12.80;99.90;;;;;;4992336;28;20479;-53
2023/10/18 11:53:26;;;;;;;11.45;5.13;;;12.80;99.90;;;;;;4992179;28;20062;-49
2023/10/18 11:55:59;;;;;;;11.18;4.80;;;12.90;99.90;;;;;;4991668;28;20029;-50
2023/10/18 11:58:27;;;;;;;7.78;4.80;;;12.90;99.90;;;;;;4990612;28;20482;-49
2023/10/18 12:00:58;;;;;;;5.60;4.47;;;13.00;99.90;;;;;;4991969;28;20018;-48
2023/10/18 12:03:27;;;;;;;5.78;4.43;;;13.10;99.90;;;;;;4992095;28;20058;-53
2023/10/18 12:05:54;;;;;;;7.18;4.60;;;13.10;99.90;;;;;;4992182;28;20493;-52
2023/10/18 12:08:23;;;;;;;6.30;4.43;;;13.10;99.90;;;;;;4991412;28;20042;-49
2023/10/18 12:10:54;;;;;;;6.82;4.78;;;13.10;99.90;;;;;;4992113;28;20025;-50
2023/10/18 12:13:20;;;;;;;7.18;4.50;;;13.10;99.90;;;;;;4992526;28;20018;-52
2023/10/18 12:15:47;;;;;;;9.40;4.80;;;13.10;99.90;;;;;;4991575;28;20409;-48
2023/10/18 12:18:14;;;;;;;8.27;4.65;;;;;;;;;;4991271;28;20019;-49
2023/10/18 12:20:43;;;;;;;10.57;4.07;;;13.20;99.90;;;;;;4990531;28;20049;-48
2023/10/18 12:23:12;;;;;;;10.98;4.35;;;13.20;99.90;;;;;;4992115;28;20474;-50
2023/10/18 12:25:38;;;;;;;8.65;4.50;;;13.20;99.90;;;;;;4992098;28;20078;-50
2023/10/18 12:28:13;;;;;;;6.10;4.22;;;13.30;99.90;;;;;;4991519;28;20027;-50
2023/10/18 12:30:41;;;;;;;27.38;20.33;;;13.40;99.90;;;;;;4991881;28;20096;-53
2023/10/18 12:33:06;;;;;;;26.58;17.02;;;13.30;99.90;;;;;;4992326;28;20149;-53
2023/10/18 12:35:33;;;;;;;31.65;19.55;;;13.40;99.90;;;;;;4991371;28;20069;-48
2023/10/18 12:37:59;;;;;;;5.18;4.32;;;13.50;99.90;;;;;;4991202;28;20037;-53
2023/10/18 12:40:28;;;;;;;10.40;4.60;;;13.60;99.90;;;;;;4991237;28;20406;-51
2023/10/18 12:43:01;;;;;;;5.30;3.72;;;13.50;99.90;;;;;;4991329;28;20032;-54
2023/10/18 12:45:27;;;;;;;9.50;4.25;;;13.60;99.90;;;;;;4990768;28;20019;-52
2023/10/18 12:47:53;;;;;;;5.30;4.00;;;13.60;99.90;;;;;;4990765;28;20050;-53
2023/10/18 12:50:19;;;;;;;6.05;4.05;;;13.60;99.90;;;;;;4956388;28;1031349;-51
2023/10/18 12:52:47;;;;;;;8.60;4.57;;;13.60;99.90;;;;;;4991887;28;20069;-46
2023/10/18 12:57:56;;;;;;;5.00;4.10;;;13.60;99.90;;;;;;4992481;28;20037;-50
2023/10/18 13:00:25;;;;;;;8.40;4.25;;;13.60;99.90;;;;;;4991821;28;20038;-49
2023/10/18 13:05:40;;;;;;;5.70;4.20;;;13.60;99.90;;;;;;4992039;28;20022;-52
2023/10/18 13:08:15;;;;;;;4.60;3.78;;;13.70;99.90;;;;;;4992783;28;20041;-51
2023/10/18 13:10:48;;;;;;;6.18;3.75;;;;;;;;;;4995072;28;20034;-48
2023/10/18 13:13:16;;;;;;;10.48;4.30;;;;;;;;;;4994651;28;20033;-49
2023/10/18 13:15:43;;;;;;;6.88;4.15;;;;;;;;;;4995932;28;20510;-48
2023/10/18 13:18:11;;;;;;;6.53;4.55;;;;;;;;;;4995492;28;20057;-54
2023/10/18 13:20:43;;;;;;;10.70;4.50;;;;;;;;;;4995591;28;20054;-50
2023/10/18 13:23:09;;;;;;;8.05;4.10;;;;;;;;;;4995576;28;20114;-50
2023/10/18 13:25:49;;;;;;;6.22;3.40;;;;;;;;;;4994462;28;20026;-52
2023/10/18 13:28:24;;;;;;;5.70;3.85;;;;;;;;;;4995813;28;20093;-49
2023/10/18 13:30:51;;;;;;;8.57;4.22;;;;;;;;;;4995734;28;20018;-53
2023/10/18 13:33:18;;;;;;;7.60;3.72;;;;;;;;;;4995556;28;20018;-51
2023/10/18 13:35:44;;;;;;;6.25;3.95;;;;;;;;;;4995587;28;20392;-52
2023/10/18 13:38:10;;;;;;;8.70;3.80;;;;;;;;;;4995079;28;20033;-53
2023/10/18 13:40:36;;;;;;;5.90;3.75;;;;;;;;;;4995713;28;20030;-50
2023/10/18 13:43:09;;;;;;;13.50;4.95;;;;;;;;;;4995581;28;20042;-48
2023/10/18 13:45:35;;;;;;;12.98;4.18;;;;;;;;;;4995835;28;20456;-50
2023/10/18 13:48:02;;;;;;;6.20;4.30;;;;;;;;;;4995758;28;20041;-50